sensor_id;sensor_type;location;lat;lon;timestamp;P1;durP1;ratioP1;P2;durP2;ratioP2
65162;SDS011;51751;55.714;37.436;2023-08-31T00:01:50;11.82;;;5.00;;
65162;SDS011;51751;55.714;37.436;2023-08-31T00:04:18;9.32;;;5.00;;
65162;SDS011;51751;55.714;37.436;2023-08-31T00:06:44;9.88;;;4.80;;
65162;SDS011;51751;55.714;37.436;2023-08-31T00:09:12;11.75;;;5.15;;
65162;SDS011;51751;55.714;37.436;2023-08-31T00:11:38;6.38;;;4.65;;
65162;SDS011;51751;55.714;37.436;2023-08-31T00:14:04;9.55;;;4.97;;
65162;SDS011;51751;55.714;37.436;2023-08-31T00:16:30;7.70;;;5.05;;
65162;SDS011;51751;55.714;37.436;2023-08-31T00:18:56;10.25;;;4.95;;
65162;SDS011;51751;55.714;37.436;2023-08-31T00:21:23;7.85;;;4.90;;
65162;SDS011;51751;55.714;37.436;2023-08-31T00:23:49;8.35;;;5.38;;
65162;SDS011;51751;55.714;37.436;2023-08-31T00:26:15;10.57;;;5.30;;
65162;SDS011;51751;55.714;37.436;2023-08-31T00:28:42;11.10;;;5.70;;
65162;SDS011;51751;55.714;37.436;2023-08-31T00:31:09;8.68;;;5.35;;
65162;SDS011;51751;55.714;37.436;2023-08-31T00:33:37;9.23;;;5.60;;
65162;SDS011;51751;55.714;37.436;2023-08-31T00:36:04;8.13;;;5.57;;
65162;SDS011;51751;55.714;37.436;2023-08-31T00:38:30;12.88;;;5.63;;
65162;SDS011;51751;55.714;37.436;2023-08-31T00:40:56;10.07;;;5.55;;
65162;SDS011;51751;55.714;37.436;2023-08-31T00:43:22;9.15;;;5.53;;
65162;SDS011;51751;55.714;37.436;2023-08-31T00:45:49;11.80;;;5.53;;
65162;SDS011;51751;55.714;37.436;2023-08-31T00:48:18;12.73;;;6.00;;
65162;SDS011;51751;55.714;37.436;2023-08-31T00:50:44;10.23;;;6.05;;
65162;SDS011;51751;55.714;37.436;2023-08-31T00:53:11;14.77;;;6.20;;
65162;SDS011;51751;55.714;37.436;2023-08-31T00:55:37;16.95;;;6.93;;
65162;SDS011;51751;55.714;37.436;2023-08-31T00:58:05;13.35;;;6.43;;
65162;SDS011;51751;55.714;37.436;2023-08-31T01:06:06;15.35;;;7.20;;
65162;SDS011;51751;55.714;37.436;2023-08-31T01:08:40;13.25;;;7.60;;
65162;SDS011;51751;55.714;37.436;2023-08-31T01:13:57;8.90;;;6.25;;
65162;SDS011;51751;55.714;37.436;2023-08-31T01:16:28;12.98;;;7.90;;
65162;SDS011;51751;55.714;37.436;2023-08-31T01:18:56;13.40;;;7.28;;
65162;SDS011;51751;55.714;37.436;2023-08-31T01:24:05;19.38;;;8.07;;
65162;SDS011;51751;55.714;37.436;2023-08-31T01:26:32;18.13;;;8.68;;
65162;SDS011;51751;55.714;37.436;2023-08-31T01:28:58;17.23;;;8.02;;
65162;SDS011;51751;55.714;37.436;2023-08-31T01:31:24;11.35;;;7.15;;
65162;SDS011;51751;55.714;37.436;2023-08-31T01:33:50;18.13;;;7.70;;
65162;SDS011;51751;55.714;37.436;2023-08-31T01:36:23;12.90;;;7.68;;
65162;SDS011;51751;55.714;37.436;2023-08-31T01:38:55;15.48;;;7.88;;
65162;SDS011;51751;55.714;37.436;2023-08-31T01:41:26;13.00;;;7.93;;
65162;SDS011;51751;55.714;37.436;2023-08-31T01:43:55;14.35;;;7.85;;
65162;SDS011;51751;55.714;37.436;2023-08-31T01:46:24;13.80;;;8.40;;
65162;SDS011;51751;55.714;37.436;2023-08-31T01:48:51;11.15;;;8.15;;
65162;SDS011;51751;55.714;37.436;2023-08-31T01:51:18;13.50;;;7.72;;
65162;SDS011;51751;55.714;37.436;2023-08-31T01:53:44;12.77;;;7.93;;
65162;SDS011;51751;55.714;37.436;2023-08-31T01:56:10;13.80;;;8.50;;
65162;SDS011;51751;55.714;37.436;2023-08-31T01:58:36;11.25;;;7.63;;
65162;SDS011;51751;55.714;37.436;2023-08-31T02:01:02;13.23;;;8.23;;
65162;SDS011;51751;55.714;37.436;2023-08-31T02:03:28;15.15;;;7.97;;
65162;SDS011;51751;55.714;37.436;2023-08-31T02:05:54;12.95;;;8.10;;
65162;SDS011;51751;55.714;37.436;2023-08-31T02:08:20;18.48;;;8.02;;
65162;SDS011;51751;55.714;37.436;2023-08-31T02:10:46;14.13;;;8.85;;
65162;SDS011;51751;55.714;37.436;2023-08-31T02:13:20;14.00;;;8.30;;
65162;SDS011;51751;55.714;37.436;2023-08-31T02:15:46;14.50;;;8.93;;
65162;SDS011;51751;55.714;37.436;2023-08-31T02:18:12;13.77;;;8.13;;
65162;SDS011;51751;55.714;37.436;2023-08-31T02:20:38;15.18;;;9.15;;
65162;SDS011;51751;55.714;37.436;2023-08-31T02:23:04;14.70;;;8.45;;
65162;SDS011;51751;55.714;37.436;2023-08-31T02:25:30;14.82;;;9.20;;
65162;SDS011;51751;55.714;37.436;2023-08-31T02:27:56;12.65;;;8.45;;
65162;SDS011;51751;55.714;37.436;2023-08-31T02:30:22;19.25;;;8.88;;
65162;SDS011;51751;55.714;37.436;2023-08-31T02:32:48;17.70;;;9.25;;
65162;SDS011;51751;55.714;37.436;2023-08-31T02:35:14;14.57;;;9.35;;
65162;SDS011;51751;55.714;37.436;2023-08-31T02:37:40;17.48;;;9.68;;
65162;SDS011;51751;55.714;37.436;2023-08-31T02:40:07;17.50;;;9.30;;
65162;SDS011;51751;55.714;37.436;2023-08-31T02:42:35;25.08;;;9.13;;
65162;SDS011;51751;55.714;37.436;2023-08-31T02:45:01;16.73;;;9.23;;
65162;SDS011;51751;55.714;37.436;2023-08-31T02:47:30;16.10;;;10.00;;
65162;SDS011;51751;55.714;37.436;2023-08-31T02:49:56;17.38;;;10.02;;
65162;SDS011;51751;55.714;37.436;2023-08-31T02:52:22;21.35;;;10.05;;
65162;SDS011;51751;55.714;37.436;2023-08-31T02:54:48;17.17;;;9.98;;
65162;SDS011;51751;55.714;37.436;2023-08-31T02:57:14;14.05;;;9.98;;
65162;SDS011;51751;55.714;37.436;2023-08-31T02:59:45;18.80;;;10.95;;
65162;SDS011;51751;55.714;37.436;2023-08-31T03:02:12;24.25;;;10.98;;
65162;SDS011;51751;55.714;37.436;2023-08-31T03:04:39;18.52;;;11.05;;
65162;SDS011;51751;55.714;37.436;2023-08-31T03:07:05;18.08;;;10.15;;
65162;SDS011;51751;55.714;37.436;2023-08-31T03:09:32;18.88;;;10.45;;
65162;SDS011;51751;55.714;37.436;2023-08-31T03:11:58;20.05;;;10.45;;
65162;SDS011;51751;55.714;37.436;2023-08-31T03:14:24;18.23;;;11.02;;
65162;SDS011;51751;55.714;37.436;2023-08-31T03:16:50;20.17;;;11.23;;
65162;SDS011;51751;55.714;37.436;2023-08-31T03:19:16;21.60;;;10.65;;
65162;SDS011;51751;55.714;37.436;2023-08-31T03:21:42;19.67;;;10.65;;
65162;SDS011;51751;55.714;37.436;2023-08-31T03:24:08;16.65;;;10.48;;
65162;SDS011;51751;55.714;37.436;2023-08-31T03:26:54;23.95;;;10.40;;
65162;SDS011;51751;55.714;37.436;2023-08-31T03:29:20;18.13;;;10.52;;
65162;SDS011;51751;55.714;37.436;2023-08-31T03:31:46;19.08;;;9.82;;
65162;SDS011;51751;55.714;37.436;2023-08-31T03:34:12;18.17;;;10.10;;
65162;SDS011;51751;55.714;37.436;2023-08-31T03:36:39;20.65;;;9.63;;
65162;SDS011;51751;55.714;37.436;2023-08-31T03:39:05;19.65;;;9.82;;
65162;SDS011;51751;55.714;37.436;2023-08-31T03:41:33;16.15;;;9.75;;
65162;SDS011;51751;55.714;37.436;2023-08-31T03:44:01;15.93;;;9.75;;
65162;SDS011;51751;55.714;37.436;2023-08-31T03:46:27;15.02;;;9.38;;
65162;SDS011;51751;55.714;37.436;2023-08-31T03:48:54;16.08;;;9.65;;
65162;SDS011;51751;55.714;37.436;2023-08-31T03:51:20;18.23;;;9.57;;
65162;SDS011;51751;55.714;37.436;2023-08-31T03:53:46;17.23;;;9.65;;
65162;SDS011;51751;55.714;37.436;2023-08-31T03:56:12;18.05;;;9.38;;
65162;SDS011;51751;55.714;37.436;2023-08-31T03:58:39;18.20;;;9.90;;
65162;SDS011;51751;55.714;37.436;2023-08-31T04:01:05;15.65;;;9.23;;
65162;SDS011;51751;55.714;37.436;2023-08-31T04:03:37;13.60;;;9.13;;
65162;SDS011;51751;55.714;37.436;2023-08-31T04:06:03;17.05;;;9.43;;
65162;SDS011;51751;55.714;37.436;2023-08-31T04:08:30;17.63;;;9.80;;
65162;SDS011;51751;55.714;37.436;2023-08-31T04:10:56;19.40;;;9.38;;
65162;SDS011;51751;55.714;37.436;2023-08-31T04:13:23;15.77;;;9.55;;
65162;SDS011;51751;55.714;37.436;2023-08-31T04:15:49;17.15;;;10.00;;
65162;SDS011;51751;55.714;37.436;2023-08-31T04:18:15;17.00;;;9.95;;
65162;SDS011;51751;55.714;37.436;2023-08-31T04:20:48;16.60;;;9.43;;
65162;SDS011;51751;55.714;37.436;2023-08-31T04:23:16;17.70;;;9.38;;
65162;SDS011;51751;55.714;37.436;2023-08-31T04:25:43;18.55;;;10.20;;
65162;SDS011;51751;55.714;37.436;2023-08-31T04:28:09;14.63;;;9.40;;
65162;SDS011;51751;55.714;37.436;2023-08-31T04:30:35;14.95;;;9.73;;
65162;SDS011;51751;55.714;37.436;2023-08-31T04:33:01;20.45;;;10.30;;
65162;SDS011;51751;55.714;37.436;2023-08-31T04:35:30;15.43;;;9.88;;
65162;SDS011;51751;55.714;37.436;2023-08-31T04:37:57;22.45;;;10.15;;
65162;SDS011;51751;55.714;37.436;2023-08-31T04:40:23;21.48;;;10.18;;
65162;SDS011;51751;55.714;37.436;2023-08-31T04:42:52;17.10;;;9.57;;
65162;SDS011;51751;55.714;37.436;2023-08-31T04:45:18;16.38;;;9.45;;
65162;SDS011;51751;55.714;37.436;2023-08-31T04:47:44;18.83;;;10.05;;
65162;SDS011;51751;55.714;37.436;2023-08-31T04:50:10;16.58;;;9.73;;
65162;SDS011;51751;55.714;37.436;2023-08-31T04:52:36;16.33;;;9.85;;
65162;SDS011;51751;55.714;37.436;2023-08-31T04:55:02;16.42;;;9.63;;
65162;SDS011;51751;55.714;37.436;2023-08-31T04:57:35;19.13;;;10.10;;
65162;SDS011;51751;55.714;37.436;2023-08-31T05:00:02;21.42;;;10.25;;
65162;SDS011;51751;55.714;37.436;2023-08-31T05:02:30;19.90;;;10.43;;
65162;SDS011;51751;55.714;37.436;2023-08-31T05:04:59;18.80;;;10.45;;
65162;SDS011;51751;55.714;37.436;2023-08-31T05:07:29;15.27;;;9.80;;
65162;SDS011;51751;55.714;37.436;2023-08-31T05:09:55;20.23;;;10.32;;
65162;SDS011;51751;55.714;37.436;2023-08-31T05:12:22;17.35;;;10.02;;
65162;SDS011;51751;55.714;37.436;2023-08-31T05:14:51;16.05;;;10.05;;
65162;SDS011;51751;55.714;37.436;2023-08-31T05:17:17;23.20;;;9.73;;
65162;SDS011;51751;55.714;37.436;2023-08-31T05:19:44;18.55;;;10.32;;
65162;SDS011;51751;55.714;37.436;2023-08-31T05:22:13;18.95;;;10.02;;
65162;SDS011;51751;55.714;37.436;2023-08-31T05:24:39;17.85;;;10.00;;
65162;SDS011;51751;55.714;37.436;2023-08-31T05:27:05;19.55;;;9.85;;
65162;SDS011;51751;55.714;37.436;2023-08-31T05:29:31;19.45;;;9.48;;
65162;SDS011;51751;55.714;37.436;2023-08-31T05:31:57;22.38;;;9.60;;
65162;SDS011;51751;55.714;37.436;2023-08-31T05:34:24;19.25;;;8.95;;
65162;SDS011;51751;55.714;37.436;2023-08-31T05:36:50;20.80;;;9.80;;
65162;SDS011;51751;55.714;37.436;2023-08-31T05:39:16;16.23;;;9.52;;
65162;SDS011;51751;55.714;37.436;2023-08-31T05:41:42;20.80;;;9.00;;
65162;SDS011;51751;55.714;37.436;2023-08-31T05:44:09;19.60;;;9.10;;
65162;SDS011;51751;55.714;37.436;2023-08-31T05:46:36;18.02;;;9.07;;
65162;SDS011;51751;55.714;37.436;2023-08-31T05:49:04;20.63;;;8.63;;
65162;SDS011;51751;55.714;37.436;2023-08-31T05:51:29;16.42;;;8.25;;
65162;SDS011;51751;55.714;37.436;2023-08-31T05:53:56;15.65;;;8.43;;
65162;SDS011;51751;55.714;37.436;2023-08-31T05:56:22;21.73;;;9.00;;
65162;SDS011;51751;55.714;37.436;2023-08-31T05:58:48;22.38;;;9.23;;
65162;SDS011;51751;55.714;37.436;2023-08-31T06:01:15;28.50;;;9.30;;
65162;SDS011;51751;55.714;37.436;2023-08-31T06:03:41;20.42;;;9.50;;
65162;SDS011;51751;55.714;37.436;2023-08-31T06:06:08;21.80;;;9.07;;
65162;SDS011;51751;55.714;37.436;2023-08-31T06:08:34;25.15;;;9.35;;
65162;SDS011;51751;55.714;37.436;2023-08-31T06:11:03;21.60;;;8.60;;
65162;SDS011;51751;55.714;37.436;2023-08-31T06:13:34;21.80;;;9.18;;
65162;SDS011;51751;55.714;37.436;2023-08-31T06:16:00;14.10;;;8.00;;
65162;SDS011;51751;55.714;37.436;2023-08-31T06:18:26;14.07;;;8.18;;
65162;SDS011;51751;55.714;37.436;2023-08-31T06:20:54;17.52;;;8.10;;
65162;SDS011;51751;55.714;37.436;2023-08-31T06:23:21;22.08;;;8.40;;
65162;SDS011;51751;55.714;37.436;2023-08-31T06:25:47;14.48;;;8.00;;
65162;SDS011;51751;55.714;37.436;2023-08-31T06:28:13;21.35;;;8.30;;
65162;SDS011;51751;55.714;37.436;2023-08-31T06:30:41;16.67;;;7.85;;
65162;SDS011;51751;55.714;37.436;2023-08-31T06:33:12;13.82;;;7.28;;
65162;SDS011;51751;55.714;37.436;2023-08-31T06:35:45;11.50;;;7.20;;
65162;SDS011;51751;55.714;37.436;2023-08-31T06:38:17;15.70;;;7.00;;
65162;SDS011;51751;55.714;37.436;2023-08-31T06:40:44;13.50;;;7.25;;
65162;SDS011;51751;55.714;37.436;2023-08-31T06:43:10;17.75;;;7.13;;
65162;SDS011;51751;55.714;37.436;2023-08-31T06:45:36;13.55;;;6.63;;
65162;SDS011;51751;55.714;37.436;2023-08-31T06:48:05;14.13;;;6.72;;
65162;SDS011;51751;55.714;37.436;2023-08-31T06:50:33;15.57;;;6.75;;
65162;SDS011;51751;55.714;37.436;2023-08-31T06:53:01;17.88;;;6.65;;
65162;SDS011;51751;55.714;37.436;2023-08-31T06:55:30;12.23;;;6.97;;
65162;SDS011;51751;55.714;37.436;2023-08-31T06:57:57;15.27;;;6.97;;
65162;SDS011;51751;55.714;37.436;2023-08-31T07:00:23;19.10;;;6.70;;
65162;SDS011;51751;55.714;37.436;2023-08-31T07:02:51;18.55;;;6.88;;
65162;SDS011;51751;55.714;37.436;2023-08-31T07:05:18;17.13;;;6.78;;
65162;SDS011;51751;55.714;37.436;2023-08-31T07:07:54;15.27;;;6.65;;
65162;SDS011;51751;55.714;37.436;2023-08-31T07:10:20;22.08;;;6.68;;
65162;SDS011;51751;55.714;37.436;2023-08-31T07:12:47;13.02;;;6.70;;
65162;SDS011;51751;55.714;37.436;2023-08-31T07:15:13;19.70;;;6.93;;
65162;SDS011;51751;55.714;37.436;2023-08-31T07:17:39;18.65;;;6.47;;
65162;SDS011;51751;55.714;37.436;2023-08-31T07:20:05;16.92;;;8.00;;
65162;SDS011;51751;55.714;37.436;2023-08-31T07:22:35;15.82;;;6.80;;
65162;SDS011;51751;55.714;37.436;2023-08-31T07:25:01;15.68;;;7.05;;
65162;SDS011;51751;55.714;37.436;2023-08-31T07:27:29;15.40;;;6.47;;
65162;SDS011;51751;55.714;37.436;2023-08-31T07:29:55;10.70;;;5.90;;
65162;SDS011;51751;55.714;37.436;2023-08-31T07:32:21;14.15;;;6.82;;
65162;SDS011;51751;55.714;37.436;2023-08-31T07:34:48;13.07;;;6.50;;
65162;SDS011;51751;55.714;37.436;2023-08-31T07:37:14;12.23;;;6.05;;
65162;SDS011;51751;55.714;37.436;2023-08-31T07:39:39;14.73;;;6.50;;
65162;SDS011;51751;55.714;37.436;2023-08-31T07:42:05;14.80;;;6.15;;
65162;SDS011;51751;55.714;37.436;2023-08-31T07:44:32;18.10;;;5.80;;
65162;SDS011;51751;55.714;37.436;2023-08-31T07:46:58;9.48;;;5.60;;
65162;SDS011;51751;55.714;37.436;2023-08-31T07:49:24;12.88;;;6.05;;
65162;SDS011;51751;55.714;37.436;2023-08-31T07:51:50;8.80;;;5.32;;
65162;SDS011;51751;55.714;37.436;2023-08-31T07:54:19;12.77;;;5.63;;
65162;SDS011;51751;55.714;37.436;2023-08-31T07:56:48;10.60;;;5.15;;
65162;SDS011;51751;55.714;37.436;2023-08-31T07:59:15;9.50;;;5.30;;
65162;SDS011;51751;55.714;37.436;2023-08-31T08:01:42;11.55;;;5.30;;
65162;SDS011;51751;55.714;37.436;2023-08-31T08:04:08;12.50;;;5.28;;
65162;SDS011;51751;55.714;37.436;2023-08-31T08:06:34;14.77;;;5.57;;
65162;SDS011;51751;55.714;37.436;2023-08-31T08:09:00;11.77;;;5.43;;
65162;SDS011;51751;55.714;37.436;2023-08-31T08:11:26;12.98;;;5.20;;
65162;SDS011;51751;55.714;37.436;2023-08-31T08:13:52;13.73;;;5.18;;
65162;SDS011;51751;55.714;37.436;2023-08-31T08:16:18;11.80;;;5.20;;
65162;SDS011;51751;55.714;37.436;2023-08-31T08:18:47;12.90;;;4.90;;
65162;SDS011;51751;55.714;37.436;2023-08-31T08:21:16;9.18;;;4.80;;
65162;SDS011;51751;55.714;37.436;2023-08-31T08:23:51;12.07;;;4.72;;
65162;SDS011;51751;55.714;37.436;2023-08-31T08:26:20;11.10;;;4.97;;
65162;SDS011;51751;55.714;37.436;2023-08-31T08:28:46;10.25;;;5.00;;
65162;SDS011;51751;55.714;37.436;2023-08-31T08:31:12;10.98;;;4.78;;
65162;SDS011;51751;55.714;37.436;2023-08-31T08:33:42;11.63;;;4.82;;
65162;SDS011;51751;55.714;37.436;2023-08-31T08:36:08;10.77;;;4.68;;
65162;SDS011;51751;55.714;37.436;2023-08-31T08:38:34;8.52;;;4.15;;
65162;SDS011;51751;55.714;37.436;2023-08-31T08:41:06;9.75;;;4.32;;
65162;SDS011;51751;55.714;37.436;2023-08-31T08:43:33;13.25;;;4.28;;
65162;SDS011;51751;55.714;37.436;2023-08-31T08:46:04;11.43;;;4.15;;
65162;SDS011;51751;55.714;37.436;2023-08-31T08:48:32;11.35;;;4.47;;
65162;SDS011;51751;55.714;37.436;2023-08-31T08:51:02;8.93;;;4.50;;
65162;SDS011;51751;55.714;37.436;2023-08-31T08:53:35;8.55;;;4.20;;
65162;SDS011;51751;55.714;37.436;2023-08-31T08:56:04;12.52;;;4.22;;
65162;SDS011;51751;55.714;37.436;2023-08-31T08:58:30;6.82;;;4.50;;
65162;SDS011;51751;55.714;37.436;2023-08-31T09:00:56;8.80;;;4.63;;
65162;SDS011;51751;55.714;37.436;2023-08-31T09:03:25;9.27;;;4.38;;
65162;SDS011;51751;55.714;37.436;2023-08-31T09:05:51;8.40;;;4.40;;
65162;SDS011;51751;55.714;37.436;2023-08-31T09:08:26;11.27;;;4.60;;
65162;SDS011;51751;55.714;37.436;2023-08-31T09:10:55;10.63;;;4.30;;
65162;SDS011;51751;55.714;37.436;2023-08-31T09:13:27;11.02;;;4.28;;
65162;SDS011;51751;55.714;37.436;2023-08-31T09:15:58;8.20;;;4.05;;
65162;SDS011;51751;55.714;37.436;2023-08-31T09:18:27;10.48;;;4.38;;
65162;SDS011;51751;55.714;37.436;2023-08-31T09:20:54;6.72;;;3.80;;
65162;SDS011;51751;55.714;37.436;2023-08-31T09:23:22;6.47;;;4.15;;
65162;SDS011;51751;55.714;37.436;2023-08-31T09:25:51;12.13;;;4.20;;
65162;SDS011;51751;55.714;37.436;2023-08-31T09:28:24;14.18;;;4.30;;
65162;SDS011;51751;55.714;37.436;2023-08-31T09:30:53;10.75;;;4.28;;
65162;SDS011;51751;55.714;37.436;2023-08-31T09:33:30;12.82;;;4.05;;
65162;SDS011;51751;55.714;37.436;2023-08-31T09:35:57;6.88;;;3.80;;
65162;SDS011;51751;55.714;37.436;2023-08-31T09:38:25;10.50;;;4.10;;
65162;SDS011;51751;55.714;37.436;2023-08-31T09:40:51;6.85;;;3.45;;
65162;SDS011;51751;55.714;37.436;2023-08-31T09:43:21;6.65;;;3.70;;
65162;SDS011;51751;55.714;37.436;2023-08-31T09:45:51;9.27;;;4.10;;
65162;SDS011;51751;55.714;37.436;2023-08-31T09:48:17;11.05;;;4.18;;
65162;SDS011;51751;55.714;37.436;2023-08-31T09:50:45;13.57;;;3.92;;
65162;SDS011;51751;55.714;37.436;2023-08-31T09:53:16;8.68;;;3.75;;
65162;SDS011;51751;55.714;37.436;2023-08-31T09:55:42;10.75;;;3.90;;
65162;SDS011;51751;55.714;37.436;2023-08-31T09:58:09;8.57;;;4.05;;
65162;SDS011;51751;55.714;37.436;2023-08-31T10:00:37;12.88;;;3.85;;
65162;SDS011;51751;55.714;37.436;2023-08-31T10:03:04;7.80;;;3.63;;
65162;SDS011;51751;55.714;37.436;2023-08-31T10:05:58;10.77;;;3.90;;
65162;SDS011;51751;55.714;37.436;2023-08-31T10:08:27;10.68;;;3.90;;
65162;SDS011;51751;55.714;37.436;2023-08-31T10:10:59;7.93;;;3.70;;
65162;SDS011;51751;55.714;37.436;2023-08-31T10:13:25;7.10;;;3.85;;
65162;SDS011;51751;55.714;37.436;2023-08-31T10:15:52;7.28;;;3.58;;
65162;SDS011;51751;55.714;37.436;2023-08-31T10:18:18;10.85;;;4.07;;
65162;SDS011;51751;55.714;37.436;2023-08-31T10:20:44;14.40;;;3.88;;
65162;SDS011;51751;55.714;37.436;2023-08-31T10:23:11;10.82;;;3.88;;
65162;SDS011;51751;55.714;37.436;2023-08-31T10:28:24;9.45;;;3.58;;
65162;SDS011;51751;55.714;37.436;2023-08-31T10:33:59;9.30;;;4.10;;
65162;SDS011;51751;55.714;37.436;2023-08-31T10:36:39;8.02;;;3.90;;
65162;SDS011;51751;55.714;37.436;2023-08-31T10:41:40;11.32;;;3.75;;
65162;SDS011;51751;55.714;37.436;2023-08-31T10:44:19;6.78;;;3.72;;
65162;SDS011;51751;55.714;37.436;2023-08-31T10:46:46;11.48;;;3.97;;
65162;SDS011;51751;55.714;37.436;2023-08-31T10:49:14;9.48;;;3.58;;
65162;SDS011;51751;55.714;37.436;2023-08-31T10:51:41;11.68;;;4.10;;
65162;SDS011;51751;55.714;37.436;2023-08-31T10:54:12;7.93;;;3.83;;
65162;SDS011;51751;55.714;37.436;2023-08-31T10:59:21;6.30;;;3.83;;
65162;SDS011;51751;55.714;37.436;2023-08-31T11:01:55;9.25;;;3.88;;
65162;SDS011;51751;55.714;37.436;2023-08-31T11:04:22;7.45;;;3.90;;
65162;SDS011;51751;55.714;37.436;2023-08-31T11:07:11;8.40;;;4.00;;
65162;SDS011;51751;55.714;37.436;2023-08-31T11:09:43;9.07;;;4.03;;
65162;SDS011;51751;55.714;37.436;2023-08-31T11:12:10;13.70;;;4.30;;
65162;SDS011;51751;55.714;37.436;2023-08-31T11:14:36;7.90;;;4.30;;
65162;SDS011;51751;55.714;37.436;2023-08-31T11:17:03;8.40;;;4.18;;
65162;SDS011;51751;55.714;37.436;2023-08-31T11:19:34;8.18;;;4.05;;
65162;SDS011;51751;55.714;37.436;2023-08-31T11:22:01;8.40;;;4.20;;
65162;SDS011;51751;55.714;37.436;2023-08-31T11:24:30;6.28;;;4.30;;
65162;SDS011;51751;55.714;37.436;2023-08-31T11:26:57;8.05;;;4.05;;
65162;SDS011;51751;55.714;37.436;2023-08-31T11:29:26;9.98;;;4.20;;
65162;SDS011;51751;55.714;37.436;2023-08-31T11:31:56;9.63;;;4.28;;
65162;SDS011;51751;55.714;37.436;2023-08-31T11:34:25;9.38;;;4.20;;
65162;SDS011;51751;55.714;37.436;2023-08-31T11:36:52;10.57;;;4.32;;
65162;SDS011;51751;55.714;37.436;2023-08-31T11:39:18;11.65;;;4.57;;
65162;SDS011;51751;55.714;37.436;2023-08-31T11:41:44;11.55;;;3.95;;
65162;SDS011;51751;55.714;37.436;2023-08-31T11:44:13;9.88;;;4.28;;
65162;SDS011;51751;55.714;37.436;2023-08-31T11:46:41;9.88;;;4.15;;
65162;SDS011;51751;55.714;37.436;2023-08-31T11:49:07;5.65;;;3.95;;
65162;SDS011;51751;55.714;37.436;2023-08-31T11:51:37;10.52;;;4.18;;
65162;SDS011;51751;55.714;37.436;2023-08-31T11:54:05;8.30;;;4.13;;
65162;SDS011;51751;55.714;37.436;2023-08-31T11:59:09;9.50;;;4.20;;
65162;SDS011;51751;55.714;37.436;2023-08-31T12:01:42;10.43;;;4.20;;
65162;SDS011;51751;55.714;37.436;2023-08-31T12:04:12;10.38;;;4.22;;
65162;SDS011;51751;55.714;37.436;2023-08-31T12:06:39;14.05;;;4.10;;
65162;SDS011;51751;55.714;37.436;2023-08-31T12:09:07;13.23;;;4.63;;
65162;SDS011;51751;55.714;37.436;2023-08-31T12:11:36;8.63;;;4.00;;
65162;SDS011;51751;55.714;37.436;2023-08-31T12:14:17;12.90;;;4.60;;
65162;SDS011;51751;55.714;37.436;2023-08-31T12:16:45;9.27;;;4.50;;
65162;SDS011;51751;55.714;37.436;2023-08-31T12:19:11;12.52;;;4.45;;
65162;SDS011;51751;55.714;37.436;2023-08-31T12:21:37;9.05;;;4.47;;
65162;SDS011;51751;55.714;37.436;2023-08-31T12:24:05;8.95;;;4.40;;
65162;SDS011;51751;55.714;37.436;2023-08-31T12:26:37;8.93;;;4.57;;
65162;SDS011;51751;55.714;37.436;2023-08-31T12:29:03;7.13;;;4.28;;
65162;SDS011;51751;55.714;37.436;2023-08-31T12:31:32;13.70;;;4.50;;
65162;SDS011;51751;55.714;37.436;2023-08-31T12:33:59;10.23;;;4.13;;
65162;SDS011;51751;55.714;37.436;2023-08-31T12:36:28;10.68;;;4.47;;
65162;SDS011;51751;55.714;37.436;2023-08-31T12:38:54;13.70;;;4.82;;
65162;SDS011;51751;55.714;37.436;2023-08-31T12:41:20;10.18;;;4.22;;
65162;SDS011;51751;55.714;37.436;2023-08-31T12:43:47;11.32;;;4.85;;
65162;SDS011;51751;55.714;37.436;2023-08-31T12:46:38;12.50;;;4.40;;
65162;SDS011;51751;55.714;37.436;2023-08-31T12:49:08;9.95;;;4.50;;
65162;SDS011;51751;55.714;37.436;2023-08-31T12:51:34;10.85;;;4.38;;
65162;SDS011;51751;55.714;37.436;2023-08-31T12:54:00;14.10;;;4.82;;
65162;SDS011;51751;55.714;37.436;2023-08-31T12:56:31;15.00;;;4.50;;
65162;SDS011;51751;55.714;37.436;2023-08-31T12:59:00;14.20;;;4.68;;
65162;SDS011;51751;55.714;37.436;2023-08-31T13:01:26;10.80;;;4.60;;
65162;SDS011;51751;55.714;37.436;2023-08-31T13:03:56;9.55;;;4.53;;
65162;SDS011;51751;55.714;37.436;2023-08-31T13:06:21;11.13;;;4.57;;
65162;SDS011;51751;55.714;37.436;2023-08-31T13:08:50;10.10;;;4.18;;
65162;SDS011;51751;55.714;37.436;2023-08-31T13:11:16;12.68;;;4.25;;
65162;SDS011;51751;55.714;37.436;2023-08-31T13:13:44;8.55;;;3.83;;
65162;SDS011;51751;55.714;37.436;2023-08-31T13:16:10;9.75;;;4.07;;
65162;SDS011;51751;55.714;37.436;2023-08-31T13:18:36;9.85;;;4.75;;
65162;SDS011;51751;55.714;37.436;2023-08-31T13:21:02;8.05;;;4.30;;
65162;SDS011;51751;55.714;37.436;2023-08-31T13:23:28;8.13;;;4.65;;
65162;SDS011;51751;55.714;37.436;2023-08-31T13:26:00;10.20;;;4.07;;
65162;SDS011;51751;55.714;37.436;2023-08-31T13:28:29;14.32;;;4.70;;
65162;SDS011;51751;55.714;37.436;2023-08-31T13:30:55;9.13;;;4.55;;
65162;SDS011;51751;55.714;37.436;2023-08-31T13:33:28;13.55;;;4.65;;
65162;SDS011;51751;55.714;37.436;2023-08-31T13:35:57;14.52;;;4.80;;
65162;SDS011;51751;55.714;37.436;2023-08-31T13:38:30;14.60;;;4.43;;
65162;SDS011;51751;55.714;37.436;2023-08-31T13:40:56;9.82;;;4.30;;
65162;SDS011;51751;55.714;37.436;2023-08-31T13:43:23;15.48;;;4.38;;
65162;SDS011;51751;55.714;37.436;2023-08-31T13:46:02;10.00;;;4.40;;
65162;SDS011;51751;55.714;37.436;2023-08-31T13:48:29;7.60;;;4.35;;
65162;SDS011;51751;55.714;37.436;2023-08-31T13:50:55;11.52;;;4.40;;
65162;SDS011;51751;55.714;37.436;2023-08-31T13:53:24;10.95;;;4.55;;
65162;SDS011;51751;55.714;37.436;2023-08-31T13:55:50;12.50;;;4.53;;
65162;SDS011;51751;55.714;37.436;2023-08-31T13:58:19;25.05;;;4.63;;
65162;SDS011;51751;55.714;37.436;2023-08-31T14:00:45;13.35;;;4.57;;
65162;SDS011;51751;55.714;37.436;2023-08-31T14:03:12;13.38;;;4.40;;
65162;SDS011;51751;55.714;37.436;2023-08-31T14:05:38;12.35;;;4.05;;
65162;SDS011;51751;55.714;37.436;2023-08-31T14:08:05;9.10;;;4.18;;
65162;SDS011;51751;55.714;37.436;2023-08-31T14:10:31;11.77;;;4.40;;
65162;SDS011;51751;55.714;37.436;2023-08-31T14:13:00;14.35;;;4.07;;
65162;SDS011;51751;55.714;37.436;2023-08-31T14:15:26;12.50;;;4.57;;
65162;SDS011;51751;55.714;37.436;2023-08-31T14:17:53;12.02;;;4.55;;
65162;SDS011;51751;55.714;37.436;2023-08-31T14:20:19;8.48;;;4.40;;
65162;SDS011;51751;55.714;37.436;2023-08-31T14:22:48;9.02;;;4.55;;
65162;SDS011;51751;55.714;37.436;2023-08-31T14:25:16;9.10;;;4.20;;
65162;SDS011;51751;55.714;37.436;2023-08-31T14:27:42;12.65;;;4.32;;
65162;SDS011;51751;55.714;37.436;2023-08-31T14:30:08;12.73;;;4.53;;
65162;SDS011;51751;55.714;37.436;2023-08-31T14:32:35;9.40;;;4.57;;
65162;SDS011;51751;55.714;37.436;2023-08-31T14:35:01;14.27;;;4.70;;
65162;SDS011;51751;55.714;37.436;2023-08-31T14:37:27;9.93;;;4.47;;
65162;SDS011;51751;55.714;37.436;2023-08-31T14:39:53;10.27;;;4.43;;
65162;SDS011;51751;55.714;37.436;2023-08-31T14:42:19;14.20;;;4.38;;
65162;SDS011;51751;55.714;37.436;2023-08-31T14:44:47;11.60;;;4.43;;
65162;SDS011;51751;55.714;37.436;2023-08-31T14:47:14;13.80;;;4.95;;
65162;SDS011;51751;55.714;37.436;2023-08-31T14:49:40;19.45;;;5.00;;
65162;SDS011;51751;55.714;37.436;2023-08-31T14:52:12;9.07;;;4.25;;